createdAt,value
2023-04-19T00:01:30.909Z,13.85
2023-04-19T00:03:58.472Z,13.10
2023-04-19T00:06:26.078Z,16.88
2023-04-19T00:08:52.927Z,13.52
2023-04-19T00:11:20.026Z,12.98
2023-04-19T00:13:46.996Z,10.43
2023-04-19T00:16:13.869Z,12.07
2023-04-19T00:18:40.759Z,14.57
2023-04-19T00:21:07.719Z,14.55
2023-04-19T00:23:35.001Z,12.43
2023-04-19T00:26:05.217Z,13.93
2023-04-19T00:28:34.566Z,14.45
2023-04-19T00:31:01.515Z,12.88
2023-04-19T00:33:28.509Z,16.80
2023-04-19T00:35:55.409Z,9.80
2023-04-19T00:38:22.675Z,13.77
2023-04-19T00:40:49.514Z,13.30
2023-04-19T00:43:19.860Z,11.48
2023-04-19T00:45:47.983Z,10.90
2023-04-19T00:48:15.334Z,14.57
2023-04-19T00:50:44.890Z,10.05
2023-04-19T00:53:11.987Z,11.85
2023-04-19T00:55:39.524Z,13.02
2023-04-19T00:58:08.536Z,7.78
2023-04-19T01:00:36.986Z,10.85
2023-04-19T01:03:04.358Z,12.60
2023-04-19T01:05:31.497Z,8.85
2023-04-19T01:07:58.357Z,11.40
2023-04-19T01:10:25.499Z,14.43
2023-04-19T01:12:52.354Z,12.68
2023-04-19T01:15:19.677Z,11.85
2023-04-19T01:17:46.776Z,10.95
2023-04-19T01:20:13.685Z,8.68
2023-04-19T01:22:40.543Z,9.52
2023-04-19T01:25:08.729Z,9.65
2023-04-19T01:27:35.818Z,11.93
2023-04-19T01:30:02.774Z,9.95
2023-04-19T01:32:29.635Z,8.80
2023-04-19T01:34:56.641Z,9.70
2023-04-19T01:37:23.510Z,10.80
2023-04-19T01:39:50.407Z,12.63
2023-04-19T01:42:17.231Z,9.82
2023-04-19T01:44:44.102Z,9.65
2023-04-19T01:47:11.171Z,12.60
2023-04-19T01:49:38.114Z,10.27
2023-04-19T01:52:05.314Z,11.38
2023-04-19T01:54:32.318Z,14.40
2023-04-19T01:56:59.131Z,11.00
2023-04-19T01:59:25.992Z,10.68
2023-04-19T02:01:52.821Z,11.52
2023-04-19T02:04:22.245Z,9.98
2023-04-19T02:06:49.143Z,10.20
2023-04-19T02:09:16.202Z,12.30
2023-04-19T02:11:43.079Z,13.98
2023-04-19T02:14:09.970Z,10.18
2023-04-19T02:16:37.066Z,8.23
2023-04-19T02:19:04.625Z,12.75
2023-04-19T02:21:31.974Z,9.55
2023-04-19T02:23:58.913Z,9.98
2023-04-19T02:26:25.927Z,11.23
2023-04-19T02:28:53.317Z,9.40
2023-04-19T02:31:20.244Z,13.32
2023-04-19T02:33:47.259Z,11.20
2023-04-19T02:36:14.058Z,10.52
2023-04-19T02:38:41.592Z,11.07
2023-04-19T02:41:08.679Z,11.52
2023-04-19T02:43:35.524Z,13.80
2023-04-19T02:46:02.679Z,9.90
2023-04-19T02:48:29.539Z,8.70
2023-04-19T02:50:56.424Z,13.10
2023-04-19T02:53:23.374Z,9.23
2023-04-19T02:55:50.714Z,12.27
2023-04-19T02:58:17.634Z,8.35
2023-04-19T03:00:44.514Z,9.90
2023-04-19T03:03:11.367Z,9.32
2023-04-19T03:05:38.519Z,10.15
2023-04-19T03:08:05.599Z,9.63
2023-04-19T03:10:32.446Z,11.20
2023-04-19T03:12:59.234Z,13.73
2023-04-19T03:15:26.400Z,11.15
2023-04-19T03:17:53.478Z,9.93
2023-04-19T03:20:20.940Z,11.85
2023-04-19T03:22:47.973Z,9.50
2023-04-19T03:25:14.867Z,9.95
2023-04-19T03:27:41.867Z,16.52
2023-04-19T03:30:09.424Z,10.80
2023-04-19T03:32:36.409Z,10.35
2023-04-19T03:35:03.557Z,11.23
2023-04-19T03:37:30.472Z,16.08
2023-04-19T03:39:57.280Z,21.27
2023-04-19T03:42:24.200Z,10.55
2023-04-19T03:44:51.005Z,11.85
2023-04-19T03:47:17.852Z,12.23
2023-04-19T03:49:44.695Z,10.23
2023-04-19T03:52:11.569Z,14.15
2023-04-19T03:54:38.521Z,11.80
2023-04-19T03:57:05.908Z,12.20
2023-04-19T03:59:32.749Z,13.15
2023-04-19T04:01:59.811Z,17.65
2023-04-19T04:04:26.840Z,10.68
2023-04-19T04:06:53.730Z,9.77
2023-04-19T04:09:20.555Z,8.43
2023-04-19T04:11:47.370Z,12.55
2023-04-19T04:14:14.681Z,12.43
2023-04-19T04:16:41.903Z,21.38
2023-04-19T04:19:08.801Z,12.32
2023-04-19T04:21:35.692Z,18.77
2023-04-19T04:24:03.456Z,14.90
2023-04-19T04:26:30.862Z,13.15
2023-04-19T04:28:57.799Z,14.23
2023-04-19T04:31:24.731Z,9.82
2023-04-19T04:33:53.190Z,9.38
2023-04-19T04:36:20.501Z,9.13
2023-04-19T04:38:47.479Z,13.30
2023-04-19T04:41:16.685Z,10.23
2023-04-19T04:43:43.646Z,12.18
2023-04-19T04:46:10.551Z,10.68
2023-04-19T04:48:37.446Z,14.30
2023-04-19T04:51:04.365Z,9.05
2023-04-19T04:53:31.187Z,10.50
2023-04-19T04:55:58.059Z,9.43
2023-04-19T04:58:24.952Z,8.35
2023-04-19T05:00:51.773Z,9.07
2023-04-19T05:03:18.695Z,10.45
2023-04-19T05:05:45.575Z,10.48
2023-04-19T05:08:12.494Z,10.35
2023-04-19T05:10:39.316Z,10.52
2023-04-19T05:13:06.085Z,7.32
2023-04-19T05:15:32.925Z,8.43
2023-04-19T05:17:59.890Z,9.60
2023-04-19T05:20:26.737Z,9.85
2023-04-19T05:23:01.403Z,8.23
2023-04-19T05:25:28.293Z,10.18
2023-04-19T05:27:55.627Z,8.70
2023-04-19T05:30:22.406Z,9.38
2023-04-19T05:32:49.631Z,9.00
2023-04-19T05:35:16.501Z,16.67
2023-04-19T05:37:43.360Z,9.70
2023-04-19T05:40:10.826Z,7.70
2023-04-19T05:42:38.766Z,11.02
2023-04-19T05:45:07.197Z,10.65
2023-04-19T05:47:34.181Z,6.72
2023-04-19T05:50:01.160Z,6.65
2023-04-19T05:52:28.060Z,7.72
2023-04-19T05:54:55.426Z,7.47
2023-04-19T05:57:22.384Z,5.55
2023-04-19T05:59:49.283Z,7.05
2023-04-19T06:02:16.398Z,6.90
2023-04-19T06:04:43.681Z,7.03
2023-04-19T06:07:26.667Z,6.72
2023-04-19T06:09:57.618Z,6.18
2023-04-19T06:12:24.709Z,5.85
2023-04-19T06:14:52.230Z,7.20
2023-04-19T06:17:24.507Z,7.40
2023-04-19T06:19:52.175Z,6.23
2023-04-19T06:22:19.150Z,4.60
2023-04-19T06:24:46.791Z,7.53
2023-04-19T06:27:15.271Z,7.40
2023-04-19T06:29:42.308Z,5.90
2023-04-19T06:32:09.711Z,4.90
2023-04-19T06:34:36.582Z,5.40
2023-04-19T06:37:03.851Z,4.18
2023-04-19T06:39:30.972Z,5.60
2023-04-19T06:41:58.039Z,7.57
2023-04-19T06:44:24.862Z,6.22
2023-04-19T06:46:51.688Z,7.70
2023-04-19T06:49:18.579Z,5.35
2023-04-19T06:51:45.643Z,5.20
2023-04-19T06:54:12.648Z,7.65
2023-04-19T06:56:49.935Z,5.97
2023-04-19T06:59:21.242Z,8.65
2023-04-19T07:01:48.808Z,7.00
2023-04-19T07:04:16.795Z,5.53
2023-04-19T07:06:43.899Z,3.72
2023-04-19T07:09:10.858Z,5.28
2023-04-19T07:11:37.870Z,3.83
2023-04-19T07:14:04.791Z,4.13
2023-04-19T07:16:31.783Z,4.85
2023-04-19T07:18:58.996Z,4.65
2023-04-19T07:21:29.342Z,2.78
2023-04-19T07:23:56.539Z,6.50
2023-04-19T07:26:23.436Z,3.40
2023-04-19T07:28:50.624Z,4.30
2023-04-19T07:31:18.665Z,3.20
2023-04-19T07:33:45.724Z,6.32
2023-04-19T07:36:12.663Z,3.97
2023-04-19T07:38:40.021Z,2.90
2023-04-19T07:41:06.907Z,3.55
2023-04-19T07:43:33.927Z,5.40
2023-04-19T07:46:00.991Z,5.30
2023-04-19T07:48:27.869Z,5.95
2023-04-19T07:50:54.762Z,3.25
2023-04-19T07:53:21.653Z,7.97
2023-04-19T07:55:48.541Z,3.53
2023-04-19T07:58:15.904Z,7.15
2023-04-19T08:00:42.920Z,3.20
2023-04-19T08:03:09.894Z,4.78
2023-04-19T08:05:37.385Z,6.22
2023-04-19T08:08:04.412Z,2.83
2023-04-19T08:10:31.583Z,4.53
2023-04-19T08:13:05.770Z,3.15
2023-04-19T08:16:20.520Z,3.92
2023-04-19T08:18:24.065Z,5.07
2023-04-19T08:20:51.187Z,6.38
2023-04-19T08:23:24.398Z,6.00
2023-04-19T08:25:54.650Z,6.50
2023-04-19T08:28:23.022Z,6.10
2023-04-19T08:30:50.329Z,3.67
2023-04-19T08:33:17.448Z,5.00
2023-04-19T08:35:45.556Z,5.25
2023-04-19T08:38:12.462Z,4.50
2023-04-19T08:40:51.585Z,3.50
2023-04-19T08:43:19.938Z,4.45
2023-04-19T08:45:50.978Z,5.03
2023-04-19T08:48:19.661Z,5.40
2023-04-19T08:51:00.262Z,3.97
2023-04-19T08:53:31.339Z,3.10
2023-04-19T08:56:12.678Z,3.22
2023-04-19T08:59:04.096Z,6.57
2023-04-19T09:01:35.952Z,6.57
2023-04-19T09:04:21.514Z,5.55
2023-04-19T09:06:55.871Z,2.42
2023-04-19T09:12:00.262Z,4.55
2023-04-19T09:14:29.148Z,3.33
2023-04-19T09:17:16.290Z,4.40
2023-04-19T09:19:50.232Z,3.08
2023-04-19T09:22:18.695Z,3.63
2023-04-19T09:25:22.700Z,4.55
2023-04-19T09:27:36.326Z,2.28
2023-04-19T09:30:04.793Z,3.65
2023-04-19T09:32:47.381Z,3.00
2023-04-19T09:35:14.560Z,3.80
2023-04-19T09:38:02.062Z,3.03
2023-04-19T09:40:28.832Z,4.07
2023-04-19T09:45:30.836Z,2.90
2023-04-19T09:48:04.876Z,2.95
2023-04-19T09:50:33.748Z,3.25
2023-04-19T09:53:06.623Z,3.05
2023-04-19T09:55:52.527Z,4.43
2023-04-19T09:58:27.607Z,2.65
2023-04-19T10:01:13.303Z,4.82
2023-04-19T10:03:45.513Z,2.15
2023-04-19T10:08:50.977Z,3.65
2023-04-19T10:11:22.313Z,5.88
2023-04-19T10:13:50.550Z,5.97
2023-04-19T10:16:20.026Z,4.22
2023-04-19T10:18:50.298Z,3.92
2023-04-19T10:21:19.164Z,4.28
2023-04-19T10:23:46.954Z,2.05
2023-04-19T10:26:13.829Z,2.17
2023-04-19T10:28:42.360Z,3.63
2023-04-19T10:31:13.797Z,2.65
2023-04-19T10:33:41.850Z,7.82
2023-04-19T10:36:11.076Z,1.90
2023-04-19T10:38:40.463Z,2.33
2023-04-19T10:41:17.854Z,2.33
2023-04-19T10:44:11.895Z,3.97
2023-04-19T10:46:42.515Z,6.10
2023-04-19T10:49:10.270Z,3.65
2023-04-19T10:51:46.916Z,1.95
2023-04-19T10:54:33.263Z,2.08
2023-04-19T10:57:08.091Z,2.13
2023-04-19T10:59:36.612Z,4.43
2023-04-19T11:02:06.306Z,2.47
2023-04-19T11:04:33.275Z,3.55
2023-04-19T11:07:03.481Z,3.72
2023-04-19T11:09:38.570Z,3.17
2023-04-19T11:12:09.869Z,3.35
2023-04-19T11:14:47.808Z,3.55
2023-04-19T11:17:27.188Z,11.75
2023-04-19T11:20:01.235Z,2.85
2023-04-19T11:22:39.740Z,2.38
2023-04-19T11:25:12.213Z,1.20
2023-04-19T11:30:20.150Z,4.07
2023-04-19T11:32:48.991Z,3.65
2023-04-19T11:35:20.278Z,5.72
2023-04-19T11:37:47.189Z,2.42
2023-04-19T11:40:19.158Z,6.70
2023-04-19T11:42:46.468Z,3.53
2023-04-19T11:45:34.762Z,4.50
2023-04-19T11:48:04.514Z,3.30
2023-04-19T11:50:35.453Z,3.33
2023-04-19T11:53:13.415Z,2.33
2023-04-19T11:55:46.495Z,6.78
2023-04-19T11:58:36.269Z,2.58
2023-04-19T12:01:10.575Z,1.88
2023-04-19T12:03:49.219Z,2.55
2023-04-19T12:06:25.490Z,3.35
2023-04-19T12:08:54.166Z,4.00
2023-04-19T12:11:26.419Z,2.45
2023-04-19T12:14:13.695Z,2.80
2023-04-19T12:16:41.124Z,3.40
2023-04-19T12:19:20.332Z,5.38
2023-04-19T12:21:47.850Z,3.40
2023-04-19T12:24:17.632Z,3.28
2023-04-19T12:26:56.464Z,2.05
2023-04-19T12:29:23.441Z,6.72
2023-04-19T12:31:51.117Z,3.15
2023-04-19T12:34:18.006Z,2.35
2023-04-19T12:36:44.887Z,2.67
2023-04-19T12:39:11.990Z,2.70
2023-04-19T12:41:38.815Z,2.35
2023-04-19T12:44:05.841Z,2.42
2023-04-19T12:46:32.766Z,3.25
2023-04-19T12:48:59.961Z,3.67
2023-04-19T12:51:27.948Z,5.05
2023-04-19T12:53:54.780Z,4.32
2023-04-19T12:56:21.960Z,2.58
2023-04-19T12:58:48.803Z,3.63
2023-04-19T13:01:16.303Z,4.38
2023-04-19T13:03:43.469Z,5.32
2023-04-19T13:06:14.719Z,2.60
2023-04-19T13:08:45.368Z,5.40
2023-04-19T13:11:15.346Z,4.47
2023-04-19T13:13:42.137Z,2.63
2023-04-19T13:16:09.250Z,1.98
2023-04-19T13:18:36.260Z,3.42
2023-04-19T13:21:03.149Z,2.85
2023-04-19T13:23:30.031Z,2.50
2023-04-19T13:25:56.853Z,3.10
2023-04-19T13:28:23.748Z,4.65
2023-04-19T13:30:50.918Z,2.83
2023-04-19T13:33:17.874Z,2.78
2023-04-19T13:35:45.362Z,4.35
2023-04-19T13:38:12.190Z,2.08
2023-04-19T13:40:39.063Z,3.55
2023-04-19T13:43:05.983Z,2.10
2023-04-19T13:45:32.856Z,4.75
2023-04-19T13:47:59.738Z,2.67
2023-04-19T13:50:26.704Z,3.88
2023-04-19T13:52:53.758Z,4.30
2023-04-19T13:55:20.767Z,1.85
2023-04-19T13:57:47.701Z,1.92
2023-04-19T14:00:15.070Z,3.58
2023-04-19T14:02:42.311Z,2.35
2023-04-19T14:05:09.712Z,4.28
2023-04-19T14:07:37.701Z,4.47
2023-04-19T14:10:05.151Z,3.85
2023-04-19T14:12:32.102Z,2.50
2023-04-19T14:14:59.438Z,1.95
2023-04-19T14:17:26.425Z,4.72
2023-04-19T14:19:53.323Z,2.90
2023-04-19T14:22:20.139Z,4.80
2023-04-19T14:24:47.033Z,3.47
2023-04-19T14:27:13.941Z,3.63
2023-04-19T14:29:40.837Z,4.63
2023-04-19T14:32:24.213Z,2.00
2023-04-19T14:34:53.593Z,3.38
2023-04-19T14:37:21.969Z,3.20
2023-04-19T14:39:48.869Z,6.43
2023-04-19T14:42:17.010Z,3.42
2023-04-19T14:44:45.388Z,5.03
2023-04-19T14:47:12.916Z,3.95
2023-04-19T14:49:41.271Z,2.47
2023-04-19T14:52:08.577Z,3.08
2023-04-19T14:54:38.077Z,6.25
2023-04-19T14:57:05.065Z,4.60
2023-04-19T14:59:31.919Z,2.30
2023-04-19T15:01:59.151Z,9.10
2023-04-19T15:04:26.123Z,4.00
2023-04-19T15:06:53.157Z,2.47
2023-04-19T15:09:20.107Z,3.65
2023-04-19T15:11:47.155Z,1.95
2023-04-19T15:14:14.231Z,1.50
2023-04-19T15:16:41.220Z,2.35
2023-04-19T15:19:08.232Z,4.68
2023-04-19T15:21:35.116Z,4.15
2023-04-19T15:24:05.933Z,4.07
2023-04-19T15:26:33.082Z,4.85
2023-04-19T15:29:00.010Z,3.72
2023-04-19T15:31:27.034Z,1.20
2023-04-19T15:33:54.181Z,3.15
2023-04-19T15:36:21.232Z,4.88
2023-04-19T15:38:48.088Z,1.83
2023-04-19T15:41:15.540Z,6.40
2023-04-19T15:43:44.876Z,5.40
2023-04-19T15:46:15.605Z,3.20
2023-04-19T15:48:44.919Z,2.03
2023-04-19T15:51:12.078Z,1.80
2023-04-19T15:53:39.096Z,3.20
2023-04-19T15:56:06.519Z,1.80
2023-04-19T15:58:33.506Z,7.38
2023-04-19T16:01:00.300Z,5.75
2023-04-19T16:03:27.701Z,3.83
2023-04-19T16:05:55.644Z,1.77
2023-04-19T16:08:22.537Z,2.83
2023-04-19T16:10:49.866Z,2.75
2023-04-19T16:13:16.976Z,4.30
2023-04-19T16:15:44.797Z,3.28
2023-04-19T16:18:13.001Z,1.42
2023-04-19T16:20:40.999Z,3.08
2023-04-19T16:23:07.992Z,2.22
2023-04-19T16:25:34.931Z,2.70
2023-04-19T16:28:02.093Z,2.80
2023-04-19T16:30:28.994Z,4.60
2023-04-19T16:32:57.008Z,4.25
2023-04-19T16:35:24.828Z,3.28
2023-04-19T16:37:53.579Z,3.58
2023-04-19T16:40:22.238Z,2.45
2023-04-19T16:42:49.309Z,4.07
2023-04-19T16:45:17.658Z,5.10
2023-04-19T16:47:46.121Z,5.20
2023-04-19T16:50:15.186Z,3.47
2023-04-19T16:52:42.073Z,2.53
2023-04-19T16:55:09.394Z,3.60
2023-04-19T16:57:38.825Z,7.53
2023-04-19T17:00:06.932Z,8.05
2023-04-19T17:02:33.934Z,6.13
2023-04-19T17:05:01.328Z,5.65
2023-04-19T17:07:28.565Z,4.70
2023-04-19T17:09:55.885Z,3.92
2023-04-19T17:12:22.921Z,4.22
2023-04-19T17:14:50.212Z,7.18
2023-04-19T17:17:22.247Z,11.48
2023-04-19T17:19:49.093Z,4.60
2023-04-19T17:22:16.357Z,8.02
2023-04-19T17:24:43.319Z,6.65
2023-04-19T17:27:10.825Z,5.97
2023-04-19T17:29:37.964Z,3.25
2023-04-19T17:32:06.165Z,8.85
2023-04-19T17:34:36.119Z,6.70
2023-04-19T17:37:04.029Z,6.07
2023-04-19T17:39:31.185Z,3.90
2023-04-19T17:41:58.360Z,3.28
2023-04-19T17:44:25.433Z,3.65
2023-04-19T17:46:52.375Z,4.68
2023-04-19T17:49:21.219Z,4.47
2023-04-19T17:51:48.303Z,7.47
2023-04-19T17:54:15.799Z,8.40
2023-04-19T17:56:42.968Z,5.80
2023-04-19T17:59:09.869Z,3.80
2023-04-19T18:01:37.083Z,6.72
2023-04-19T18:04:04.533Z,4.43
2023-04-19T18:06:31.840Z,4.53
2023-04-19T18:08:58.986Z,5.55
2023-04-19T18:11:28.119Z,6.40
2023-04-19T18:13:55.673Z,6.65
2023-04-19T18:16:22.650Z,5.75
2023-04-19T18:18:49.561Z,6.45
2023-04-19T18:21:17.077Z,6.40
2023-04-19T18:23:43.925Z,5.20
2023-04-19T18:26:10.922Z,3.67
2023-04-19T18:28:41.023Z,5.85
2023-04-19T18:31:08.668Z,5.10
2023-04-19T18:33:36.448Z,13.80
2023-04-19T18:36:04.165Z,7.47
2023-04-19T18:38:33.581Z,8.05
2023-04-19T18:41:00.424Z,6.45
2023-04-19T18:43:28.891Z,5.88
2023-04-19T18:45:58.139Z,4.07
2023-04-19T18:48:28.126Z,2.83
2023-04-19T18:50:56.856Z,10.98
2023-04-19T18:53:25.204Z,3.05
2023-04-19T18:55:57.647Z,9.13
2023-04-19T18:58:26.355Z,4.50
2023-04-19T19:00:53.594Z,5.75
2023-04-19T19:03:49.844Z,4.57
2023-04-19T19:06:10.304Z,7.72
2023-04-19T19:08:37.600Z,7.03
2023-04-19T19:13:35.196Z,5.05
2023-04-19T19:16:02.359Z,7.97
2023-04-19T19:18:29.677Z,5.80
2023-04-19T19:21:00.444Z,9.63
2023-04-19T19:23:35.463Z,11.15
2023-04-19T19:26:03.974Z,3.33
2023-04-19T19:28:31.009Z,5.45
2023-04-19T19:30:57.907Z,6.07
2023-04-19T19:33:24.797Z,8.60
2023-04-19T19:35:51.619Z,7.68
2023-04-19T19:38:18.487Z,9.55
2023-04-19T19:41:28.044Z,4.75
2023-04-19T19:43:33.629Z,11.10
2023-04-19T19:46:01.636Z,13.60
2023-04-19T19:48:30.209Z,7.03
2023-04-19T19:53:30.197Z,8.90
2023-04-19T19:55:57.189Z,11.27
2023-04-19T19:58:46.260Z,9.77
2023-04-19T20:01:11.265Z,13.38
2023-04-19T20:03:38.576Z,5.95
2023-04-19T20:08:43.726Z,8.35
2023-04-19T20:13:37.860Z,6.75
2023-04-19T20:16:08.419Z,7.32
2023-04-19T20:18:37.980Z,7.35
2023-04-19T20:21:04.851Z,6.22
2023-04-19T20:23:31.699Z,8.63
2023-04-19T20:25:59.855Z,6.47
2023-04-19T20:28:26.751Z,7.35
2023-04-19T20:30:53.975Z,3.53
2023-04-19T20:33:20.841Z,3.05
2023-04-19T20:35:48.307Z,5.88
2023-04-19T20:38:15.567Z,13.00
2023-04-19T20:40:44.071Z,3.42
2023-04-19T20:43:12.239Z,7.60
2023-04-19T20:45:39.171Z,6.93
2023-04-19T20:48:06.907Z,4.68
2023-04-19T20:50:34.159Z,4.65
2023-04-19T20:53:01.357Z,5.10
2023-04-19T20:55:28.523Z,4.57
2023-04-19T20:57:55.529Z,2.63
2023-04-19T21:00:22.645Z,6.68
2023-04-19T21:02:49.740Z,4.40
2023-04-19T21:05:16.722Z,5.97
2023-04-19T21:07:43.654Z,3.63
2023-04-19T21:10:11.415Z,3.42
2023-04-19T21:12:38.448Z,3.72
2023-04-19T21:15:05.937Z,4.78
2023-04-19T21:17:32.869Z,4.13
2023-04-19T21:20:02.024Z,9.35
2023-04-19T21:22:28.963Z,4.93
2023-04-19T21:24:56.185Z,7.18
2023-04-19T21:27:23.228Z,7.97
2023-04-19T21:29:49.998Z,22.65
2023-04-19T21:32:16.827Z,12.32
2023-04-19T21:34:44.209Z,10.93
2023-04-19T21:37:11.170Z,10.88
2023-04-19T21:39:38.054Z,7.00
2023-04-19T21:42:04.926Z,8.80
2023-04-19T21:44:33.006Z,12.52
2023-04-19T21:46:59.978Z,9.70
2023-04-19T21:49:27.002Z,5.30
2023-04-19T21:51:53.963Z,14.40
2023-04-19T21:54:32.881Z,5.63
2023-04-19T21:57:01.702Z,3.85
2023-04-19T21:59:30.313Z,6.75
2023-04-19T22:01:58.224Z,4.40
2023-04-19T22:04:26.403Z,4.75
2023-04-19T22:06:53.864Z,5.57
2023-04-19T22:09:20.760Z,6.03
2023-04-19T22:11:47.962Z,5.43
2023-04-19T22:14:14.830Z,6.03
2023-04-19T22:16:42.232Z,5.50
2023-04-19T22:19:09.585Z,7.63
2023-04-19T22:21:36.483Z,4.13
2023-04-19T22:24:03.772Z,11.48
2023-04-19T22:26:30.713Z,5.18
2023-04-19T22:28:57.832Z,4.93
2023-04-19T22:31:24.734Z,6.97
2023-04-19T22:33:51.691Z,4.80
2023-04-19T22:36:18.564Z,7.85
2023-04-19T22:38:45.551Z,4.10
2023-04-19T22:41:12.476Z,6.63
2023-04-19T22:43:39.333Z,7.43
2023-04-19T22:46:08.817Z,6.70
2023-04-19T22:48:36.389Z,6.50
2023-04-19T22:51:03.352Z,7.65
2023-04-19T22:53:30.293Z,3.67
2023-04-19T22:55:57.101Z,3.40
2023-04-19T22:58:23.931Z,8.75
2023-04-19T23:00:50.841Z,4.13
2023-04-19T23:03:17.756Z,6.65
2023-04-19T23:05:44.640Z,3.17
2023-04-19T23:08:12.886Z,7.00
2023-04-19T23:10:42.611Z,3.83
2023-04-19T23:13:12.204Z,8.20
2023-04-19T23:15:39.354Z,7.32
2023-04-19T23:18:06.529Z,3.72
2023-04-19T23:20:33.452Z,3.78
2023-04-19T23:23:00.546Z,5.30
2023-04-19T23:25:27.554Z,7.07
2023-04-19T23:27:54.583Z,11.73
2023-04-19T23:30:21.631Z,4.72
2023-04-19T23:32:48.694Z,5.20
2023-04-19T23:35:15.612Z,3.45
2023-04-19T23:37:42.393Z,4.57
2023-04-19T23:40:10.289Z,3.58
2023-04-19T23:42:38.441Z,5.93
2023-04-19T23:45:06.700Z,4.45
2023-04-19T23:47:34.284Z,7.03
2023-04-19T23:50:01.286Z,5.00
2023-04-19T23:52:28.260Z,9.55
2023-04-19T23:54:55.064Z,6.53
2023-04-19T23:57:22.956Z,4.15
2023-04-19T23:59:50.517Z,5.20
